Terminal Aerodrome Forecast
Issued by NWS Jackson, KY

Home | Current Version | Previous Version | Text Only | Print | Product List | Glossary On
Versions: 1 2 3 4 5 6 7 8 9 10 11 12 13 14 15 16 17 18 19 20 21 22 23 24
000
FTUS43 KJKL 281251 AAC
TAFJKL
TAF AMD
KJKL 281251Z 2813/2912 00000KT 1/4SM FG VV004
      TEMPO 2813/2814 3/4SM BR
     FM281600 24008G18KT P6SM VCTS BKN040CB OVC080
     FM282300 26006KT P6SM SCT200=

USA.gov is the U.S. government's official web portal to all federal, state and local government web resources and services.